sensor_id;sensor_type;location;lat;lon;timestamp;temperature;humidity
27922;DHT22;15261;50.356;10.340;2024-01-15T00:01:33;-1.00;99.90
27922;DHT22;15261;50.356;10.340;2024-01-15T00:03:59;-1.00;99.90
27922;DHT22;15261;50.356;10.340;2024-01-15T00:06:25;-1.00;99.90
27922;DHT22;15261;50.356;10.340;2024-01-15T00:08:52;-1.00;99.90
27922;DHT22;15261;50.356;10.340;2024-01-15T00:11:17;-1.10;99.90
27922;DHT22;15261;50.356;10.340;2024-01-15T00:13:43;-1.10;99.90
27922;DHT22;15261;50.356;10.340;2024-01-15T00:16:08;-1.20;99.90
27922;DHT22;15261;50.356;10.340;2024-01-15T00:18:34;-1.20;99.90
27922;DHT22;15261;50.356;10.340;2024-01-15T00:20:59;-1.10;99.90
27922;DHT22;15261;50.356;10.340;2024-01-15T00:23:25;-1.10;99.90
27922;DHT22;15261;50.356;10.340;2024-01-15T00:25:51;-1.10;99.90
27922;DHT22;15261;50.356;10.340;2024-01-15T00:28:17;-1.10;99.90
27922;DHT22;15261;50.356;10.340;2024-01-15T00:30:42;-1.10;99.90
27922;DHT22;15261;50.356;10.340;2024-01-15T00:33:08;-1.10;99.90
27922;DHT22;15261;50.356;10.340;2024-01-15T00:35:36;-1.10;99.90
27922;DHT22;15261;50.356;10.340;2024-01-15T00:38:02;-1.10;99.90
27922;DHT22;15261;50.356;10.340;2024-01-15T00:40:27;-1.10;99.90
27922;DHT22;15261;50.356;10.340;2024-01-15T00:42:53;-1.20;99.90
27922;DHT22;15261;50.356;10.340;2024-01-15T00:45:19;-1.20;99.90
27922;DHT22;15261;50.356;10.340;2024-01-15T00:47:44;-1.20;99.90
27922;DHT22;15261;50.356;10.340;2024-01-15T00:50:10;-1.20;99.90
27922;DHT22;15261;50.356;10.340;2024-01-15T00:52:35;-1.20;99.90
27922;DHT22;15261;50.356;10.340;2024-01-15T00:55:01;-1.30;99.90
27922;DHT22;15261;50.356;10.340;2024-01-15T00:57:26;-1.30;99.90
27922;DHT22;15261;50.356;10.340;2024-01-15T00:59:52;-1.30;99.90
27922;DHT22;15261;50.356;10.340;2024-01-15T01:02:18;-1.30;99.90
27922;DHT22;15261;50.356;10.340;2024-01-15T01:04:43;-1.30;99.90
27922;DHT22;15261;50.356;10.340;2024-01-15T01:07:09;-1.40;99.90
27922;DHT22;15261;50.356;10.340;2024-01-15T01:09:34;-1.30;99.90
27922;DHT22;15261;50.356;10.340;2024-01-15T01:12:00;-1.30;99.90
27922;DHT22;15261;50.356;10.340;2024-01-15T01:14:25;-1.40;99.90
27922;DHT22;15261;50.356;10.340;2024-01-15T01:16:51;-1.30;99.90
27922;DHT22;15261;50.356;10.340;2024-01-15T01:19:17;-1.30;99.90
27922;DHT22;15261;50.356;10.340;2024-01-15T01:21:42;-1.30;99.90
27922;DHT22;15261;50.356;10.340;2024-01-15T01:24:08;-1.40;99.90
27922;DHT22;15261;50.356;10.340;2024-01-15T01:26:33;-1.30;99.90
27922;DHT22;15261;50.356;10.340;2024-01-15T01:28:59;-1.40;99.90
27922;DHT22;15261;50.356;10.340;2024-01-15T01:31:24;-1.40;99.90
27922;DHT22;15261;50.356;10.340;2024-01-15T01:33:50;-1.40;99.90
27922;DHT22;15261;50.356;10.340;2024-01-15T01:36:16;-1.50;99.90
27922;DHT22;15261;50.356;10.340;2024-01-15T01:38:41;-1.50;99.90
27922;DHT22;15261;50.356;10.340;2024-01-15T01:41:07;-1.40;99.90
27922;DHT22;15261;50.356;10.340;2024-01-15T01:43:33;-1.50;99.90
27922;DHT22;15261;50.356;10.340;2024-01-15T01:46:00;-1.40;99.90
27922;DHT22;15261;50.356;10.340;2024-01-15T01:48:26;-1.40;99.90
27922;DHT22;15261;50.356;10.340;2024-01-15T01:50:54;-1.30;99.90
27922;DHT22;15261;50.356;10.340;2024-01-15T01:53:22;-1.40;99.90
27922;DHT22;15261;50.356;10.340;2024-01-15T01:55:48;-1.40;99.90
27922;DHT22;15261;50.356;10.340;2024-01-15T01:58:15;-1.40;99.90
27922;DHT22;15261;50.356;10.340;2024-01-15T02:19:35;-1.50;99.90
27922;DHT22;15261;50.356;10.340;2024-01-15T02:22:00;-1.60;99.90
27922;DHT22;15261;50.356;10.340;2024-01-15T02:24:26;-1.60;99.90
27922;DHT22;15261;50.356;10.340;2024-01-15T02:26:51;-1.50;99.90
27922;DHT22;15261;50.356;10.340;2024-01-15T02:29:17;-1.50;99.90
27922;DHT22;15261;50.356;10.340;2024-01-15T02:31:43;-1.50;99.90
27922;DHT22;15261;50.356;10.340;2024-01-15T02:34:08;-1.50;99.90
27922;DHT22;15261;50.356;10.340;2024-01-15T02:36:34;-1.60;99.90
27922;DHT22;15261;50.356;10.340;2024-01-15T02:38:59;-1.50;99.90
27922;DHT22;15261;50.356;10.340;2024-01-15T02:41:25;-1.50;99.90
27922;DHT22;15261;50.356;10.340;2024-01-15T02:43:51;-1.50;99.90
27922;DHT22;15261;50.356;10.340;2024-01-15T02:46:16;-1.50;99.90
27922;DHT22;15261;50.356;10.340;2024-01-15T02:48:42;-1.50;99.90
27922;DHT22;15261;50.356;10.340;2024-01-15T02:51:07;-1.40;99.90
27922;DHT22;15261;50.356;10.340;2024-01-15T02:53:33;-1.30;99.90
27922;DHT22;15261;50.356;10.340;2024-01-15T02:55:58;-1.40;99.90
27922;DHT22;15261;50.356;10.340;2024-01-15T02:58:24;-1.40;99.90
27922;DHT22;15261;50.356;10.340;2024-01-15T03:00:50;-1.40;99.90
27922;DHT22;15261;50.356;10.340;2024-01-15T03:03:15;-1.40;99.90
27922;DHT22;15261;50.356;10.340;2024-01-15T03:05:40;-1.40;99.90
27922;DHT22;15261;50.356;10.340;2024-01-15T03:08:06;-1.40;99.90
27922;DHT22;15261;50.356;10.340;2024-01-15T03:10:32;-1.30;99.90
27922;DHT22;15261;50.356;10.340;2024-01-15T03:12:57;-1.30;99.90
27922;DHT22;15261;50.356;10.340;2024-01-15T03:15:23;-1.30;99.90
27922;DHT22;15261;50.356;10.340;2024-01-15T03:17:48;-1.40;99.90
27922;DHT22;15261;50.356;10.340;2024-01-15T03:20:14;-1.40;99.90
27922;DHT22;15261;50.356;10.340;2024-01-15T03:22:39;-1.50;99.90
27922;DHT22;15261;50.356;10.340;2024-01-15T03:25:06;-1.40;99.90
27922;DHT22;15261;50.356;10.340;2024-01-15T03:27:32;-1.50;99.90
27922;DHT22;15261;50.356;10.340;2024-01-15T03:29:57;-1.40;99.90
27922;DHT22;15261;50.356;10.340;2024-01-15T03:32:23;-1.50;99.90
27922;DHT22;15261;50.356;10.340;2024-01-15T03:34:48;-1.50;99.90
27922;DHT22;15261;50.356;10.340;2024-01-15T03:37:14;-1.50;99.90
27922;DHT22;15261;50.356;10.340;2024-01-15T03:39:39;-1.50;99.90
27922;DHT22;15261;50.356;10.340;2024-01-15T03:42:06;-1.50;99.90
27922;DHT22;15261;50.356;10.340;2024-01-15T03:44:32;-1.40;99.90
27922;DHT22;15261;50.356;10.340;2024-01-15T03:46:58;-1.40;99.90
27922;DHT22;15261;50.356;10.340;2024-01-15T03:49:24;-1.40;99.90
27922;DHT22;15261;50.356;10.340;2024-01-15T03:52:02;-1.40;99.90
27922;DHT22;15261;50.356;10.340;2024-01-15T03:54:27;-1.30;99.90
27922;DHT22;15261;50.356;10.340;2024-01-15T03:56:53;-1.40;99.90
27922;DHT22;15261;50.356;10.340;2024-01-15T03:59:18;-1.40;99.90
27922;DHT22;15261;50.356;10.340;2024-01-15T04:01:50;-1.40;99.90
27922;DHT22;15261;50.356;10.340;2024-01-15T04:04:16;-1.40;99.90
27922;DHT22;15261;50.356;10.340;2024-01-15T04:06:42;-1.40;99.90
27922;DHT22;15261;50.356;10.340;2024-01-15T04:09:08;-1.40;99.90
27922;DHT22;15261;50.356;10.340;2024-01-15T04:11:33;-1.40;99.90
27922;DHT22;15261;50.356;10.340;2024-01-15T04:13:59;-1.40;99.90
27922;DHT22;15261;50.356;10.340;2024-01-15T04:16:24;-1.40;99.90
27922;DHT22;15261;50.356;10.340;2024-01-15T04:18:50;-1.40;99.90
27922;DHT22;15261;50.356;10.340;2024-01-15T04:21:17;-1.40;99.90
27922;DHT22;15261;50.356;10.340;2024-01-15T04:23:43;-1.50;99.90
27922;DHT22;15261;50.356;10.340;2024-01-15T04:26:08;-1.50;99.90
27922;DHT22;15261;50.356;10.340;2024-01-15T04:28:34;-1.50;99.90
27922;DHT22;15261;50.356;10.340;2024-01-15T04:31:00;-1.60;99.90
27922;DHT22;15261;50.356;10.340;2024-01-15T04:33:25;-1.60;99.90
27922;DHT22;15261;50.356;10.340;2024-01-15T04:35:51;-1.60;99.90
27922;DHT22;15261;50.356;10.340;2024-01-15T04:38:16;-1.60;99.90
27922;DHT22;15261;50.356;10.340;2024-01-15T04:40:42;-1.60;99.90
27922;DHT22;15261;50.356;10.340;2024-01-15T04:43:11;-1.60;99.90
27922;DHT22;15261;50.356;10.340;2024-01-15T04:45:36;-1.60;99.90
27922;DHT22;15261;50.356;10.340;2024-01-15T04:48:02;-1.60;99.90
27922;DHT22;15261;50.356;10.340;2024-01-15T04:50:28;-1.60;99.90
27922;DHT22;15261;50.356;10.340;2024-01-15T04:52:54;-1.60;99.90
27922;DHT22;15261;50.356;10.340;2024-01-15T04:55:19;-1.60;99.90
27922;DHT22;15261;50.356;10.340;2024-01-15T04:57:45;-1.60;99.90
27922;DHT22;15261;50.356;10.340;2024-01-15T05:00:11;-1.60;99.90
27922;DHT22;15261;50.356;10.340;2024-01-15T05:02:37;-1.60;99.90
27922;DHT22;15261;50.356;10.340;2024-01-15T05:05:03;-1.50;99.90
27922;DHT22;15261;50.356;10.340;2024-01-15T05:07:28;-1.50;99.90
27922;DHT22;15261;50.356;10.340;2024-01-15T05:09:54;-1.50;99.90
27922;DHT22;15261;50.356;10.340;2024-01-15T05:12:19;-1.40;99.90
27922;DHT22;15261;50.356;10.340;2024-01-15T05:14:45;-1.40;99.90
27922;DHT22;15261;50.356;10.340;2024-01-15T05:17:10;-1.40;99.90
27922;DHT22;15261;50.356;10.340;2024-01-15T05:19:36;-1.50;99.90
27922;DHT22;15261;50.356;10.340;2024-01-15T05:22:02;-1.50;99.90
27922;DHT22;15261;50.356;10.340;2024-01-15T05:24:27;-1.60;99.90
27922;DHT22;15261;50.356;10.340;2024-01-15T05:26:53;-1.70;99.90
27922;DHT22;15261;50.356;10.340;2024-01-15T05:29:18;-1.70;99.90
27922;DHT22;15261;50.356;10.340;2024-01-15T05:31:44;-1.70;99.90
27922;DHT22;15261;50.356;10.340;2024-01-15T05:34:09;-1.70;99.90
27922;DHT22;15261;50.356;10.340;2024-01-15T05:36:35;-1.80;99.90
27922;DHT22;15261;50.356;10.340;2024-01-15T05:39:01;-1.90;99.90
27922;DHT22;15261;50.356;10.340;2024-01-15T05:41:26;-1.90;99.90
27922;DHT22;15261;50.356;10.340;2024-01-15T05:43:52;-1.80;99.90
27922;DHT22;15261;50.356;10.340;2024-01-15T05:46:17;-1.90;99.90
27922;DHT22;15261;50.356;10.340;2024-01-15T05:48:43;-1.90;99.90
27922;DHT22;15261;50.356;10.340;2024-01-15T05:51:10;-1.90;99.90
27922;DHT22;15261;50.356;10.340;2024-01-15T05:53:35;-2.00;99.90
27922;DHT22;15261;50.356;10.340;2024-01-15T05:56:01;-2.00;99.90
27922;DHT22;15261;50.356;10.340;2024-01-15T05:58:27;-2.10;99.90
27922;DHT22;15261;50.356;10.340;2024-01-15T06:00:52;-2.10;99.90
27922;DHT22;15261;50.356;10.340;2024-01-15T06:03:18;-2.10;99.90
27922;DHT22;15261;50.356;10.340;2024-01-15T06:05:43;-2.20;99.90
27922;DHT22;15261;50.356;10.340;2024-01-15T06:08:09;-2.20;99.90
27922;DHT22;15261;50.356;10.340;2024-01-15T06:10:34;-2.20;99.90
27922;DHT22;15261;50.356;10.340;2024-01-15T06:13:01;-2.10;99.90
27922;DHT22;15261;50.356;10.340;2024-01-15T06:15:26;-2.00;99.90
27922;DHT22;15261;50.356;10.340;2024-01-15T06:17:52;-1.80;99.90
27922;DHT22;15261;50.356;10.340;2024-01-15T06:20:17;-1.70;99.90
27922;DHT22;15261;50.356;10.340;2024-01-15T06:22:43;-1.70;99.90
27922;DHT22;15261;50.356;10.340;2024-01-15T06:25:09;-1.60;99.90
27922;DHT22;15261;50.356;10.340;2024-01-15T06:27:34;-1.50;99.90
27922;DHT22;15261;50.356;10.340;2024-01-15T06:30:00;-1.50;99.90
27922;DHT22;15261;50.356;10.340;2024-01-15T06:32:25;-1.50;99.90
27922;DHT22;15261;50.356;10.340;2024-01-15T06:34:51;-1.40;99.90
27922;DHT22;15261;50.356;10.340;2024-01-15T06:37:16;-1.40;99.90
27922;DHT22;15261;50.356;10.340;2024-01-15T06:39:44;-1.30;99.90
27922;DHT22;15261;50.356;10.340;2024-01-15T06:42:11;-1.30;99.90
27922;DHT22;15261;50.356;10.340;2024-01-15T06:44:36;-1.30;99.90
27922;DHT22;15261;50.356;10.340;2024-01-15T06:47:02;-1.30;99.90
27922;DHT22;15261;50.356;10.340;2024-01-15T06:49:29;-1.30;99.90
27922;DHT22;15261;50.356;10.340;2024-01-15T06:51:55;-1.30;99.90
27922;DHT22;15261;50.356;10.340;2024-01-15T06:54:20;-1.30;99.90
27922;DHT22;15261;50.356;10.340;2024-01-15T06:56:46;-1.30;99.90
27922;DHT22;15261;50.356;10.340;2024-01-15T06:59:11;-1.20;99.90
27922;DHT22;15261;50.356;10.340;2024-01-15T07:01:37;-1.20;99.90
27922;DHT22;15261;50.356;10.340;2024-01-15T07:04:03;-1.20;99.90
27922;DHT22;15261;50.356;10.340;2024-01-15T07:06:28;-1.20;99.90
27922;DHT22;15261;50.356;10.340;2024-01-15T07:08:56;-1.10;99.90
27922;DHT22;15261;50.356;10.340;2024-01-15T07:11:21;-1.10;99.90
27922;DHT22;15261;50.356;10.340;2024-01-15T07:13:47;-1.10;99.90
27922;DHT22;15261;50.356;10.340;2024-01-15T07:16:12;-1.10;99.90
27922;DHT22;15261;50.356;10.340;2024-01-15T07:18:38;-1.10;99.90
27922;DHT22;15261;50.356;10.340;2024-01-15T07:21:04;-1.10;99.90
27922;DHT22;15261;50.356;10.340;2024-01-15T07:23:31;-1.10;99.90
27922;DHT22;15261;50.356;10.340;2024-01-15T07:25:57;-1.10;99.90
27922;DHT22;15261;50.356;10.340;2024-01-15T07:28:23;-1.10;99.90
27922;DHT22;15261;50.356;10.340;2024-01-15T07:30:49;-1.10;99.90
27922;DHT22;15261;50.356;10.340;2024-01-15T07:33:15;-1.10;99.90
27922;DHT22;15261;50.356;10.340;2024-01-15T07:35:40;-1.10;99.90
27922;DHT22;15261;50.356;10.340;2024-01-15T07:38:06;-1.10;99.90
27922;DHT22;15261;50.356;10.340;2024-01-15T07:40:32;-1.20;99.90
27922;DHT22;15261;50.356;10.340;2024-01-15T07:42:59;-1.30;99.90
27922;DHT22;15261;50.356;10.340;2024-01-15T07:45:28;-1.30;99.90
27922;DHT22;15261;50.356;10.340;2024-01-15T07:47:53;-1.40;99.90
27922;DHT22;15261;50.356;10.340;2024-01-15T07:50:19;-1.40;99.90
27922;DHT22;15261;50.356;10.340;2024-01-15T07:52:45;-1.30;99.90
27922;DHT22;15261;50.356;10.340;2024-01-15T07:55:10;-1.30;99.90
27922;DHT22;15261;50.356;10.340;2024-01-15T07:57:36;-1.20;99.90
27922;DHT22;15261;50.356;10.340;2024-01-15T08:00:03;-1.10;99.90
27922;DHT22;15261;50.356;10.340;2024-01-15T08:02:32;-1.10;99.90
27922;DHT22;15261;50.356;10.340;2024-01-15T08:04:58;-1.00;99.90
27922;DHT22;15261;50.356;10.340;2024-01-15T08:07:25;-0.90;99.90
27922;DHT22;15261;50.356;10.340;2024-01-15T08:09:51;-0.90;99.90
27922;DHT22;15261;50.356;10.340;2024-01-15T08:12:31;-0.80;99.90
27922;DHT22;15261;50.356;10.340;2024-01-15T08:14:59;-0.70;99.90
27922;DHT22;15261;50.356;10.340;2024-01-15T08:17:24;-0.70;99.90
27922;DHT22;15261;50.356;10.340;2024-01-15T08:19:54;-0.70;99.90
27922;DHT22;15261;50.356;10.340;2024-01-15T08:22:20;-0.70;99.90
27922;DHT22;15261;50.356;10.340;2024-01-15T08:24:45;-0.70;99.90
27922;DHT22;15261;50.356;10.340;2024-01-15T08:27:11;-0.70;99.90
27922;DHT22;15261;50.356;10.340;2024-01-15T08:29:37;-0.70;99.90
27922;DHT22;15261;50.356;10.340;2024-01-15T08:32:03;-0.70;99.90
27922;DHT22;15261;50.356;10.340;2024-01-15T08:34:28;-0.70;99.90
27922;DHT22;15261;50.356;10.340;2024-01-15T08:36:59;-0.80;99.90
27922;DHT22;15261;50.356;10.340;2024-01-15T08:42:05;-0.70;99.90
27922;DHT22;15261;50.356;10.340;2024-01-15T08:44:30;-0.80;99.90
27922;DHT22;15261;50.356;10.340;2024-01-15T08:46:56;-0.70;99.90
27922;DHT22;15261;50.356;10.340;2024-01-15T08:49:21;-0.70;99.90
27922;DHT22;15261;50.356;10.340;2024-01-15T08:51:47;-0.70;99.90
27922;DHT22;15261;50.356;10.340;2024-01-15T08:54:13;-0.70;99.90
27922;DHT22;15261;50.356;10.340;2024-01-15T08:56:38;-0.70;99.90
27922;DHT22;15261;50.356;10.340;2024-01-15T08:59:05;-0.60;99.90
27922;DHT22;15261;50.356;10.340;2024-01-15T09:01:31;-0.50;99.90
27922;DHT22;15261;50.356;10.340;2024-01-15T09:03:56;-0.50;99.90
27922;DHT22;15261;50.356;10.340;2024-01-15T09:06:22;-0.40;99.90
27922;DHT22;15261;50.356;10.340;2024-01-15T09:08:47;-0.40;99.90
27922;DHT22;15261;50.356;10.340;2024-01-15T09:11:13;-0.50;99.90
27922;DHT22;15261;50.356;10.340;2024-01-15T09:13:38;-0.50;99.90
27922;DHT22;15261;50.356;10.340;2024-01-15T09:16:05;-0.50;99.90
27922;DHT22;15261;50.356;10.340;2024-01-15T09:18:31;-0.50;99.90
27922;DHT22;15261;50.356;10.340;2024-01-15T09:20:57;-0.50;99.90
27922;DHT22;15261;50.356;10.340;2024-01-15T09:23:22;-0.50;99.90
27922;DHT22;15261;50.356;10.340;2024-01-15T09:25:48;-0.50;99.90
27922;DHT22;15261;50.356;10.340;2024-01-15T09:28:14;-0.40;99.90
27922;DHT22;15261;50.356;10.340;2024-01-15T09:30:39;-0.30;99.90
27922;DHT22;15261;50.356;10.340;2024-01-15T09:33:05;-0.20;99.90
27922;DHT22;15261;50.356;10.340;2024-01-15T09:35:31;-0.10;99.90
27922;DHT22;15261;50.356;10.340;2024-01-15T09:37:56;-0.20;99.90
27922;DHT22;15261;50.356;10.340;2024-01-15T09:40:23;-0.20;99.90
27922;DHT22;15261;50.356;10.340;2024-01-15T09:42:50;-0.20;99.90
27922;DHT22;15261;50.356;10.340;2024-01-15T09:45:25;-0.10;99.90
27922;DHT22;15261;50.356;10.340;2024-01-15T09:47:51;-0.10;99.90
27922;DHT22;15261;50.356;10.340;2024-01-15T09:50:16;0.00;99.90
27922;DHT22;15261;50.356;10.340;2024-01-15T09:52:43;0.20;99.90
27922;DHT22;15261;50.356;10.340;2024-01-15T09:55:10;0.10;99.90
27922;DHT22;15261;50.356;10.340;2024-01-15T09:57:38;0.20;99.90
27922;DHT22;15261;50.356;10.340;2024-01-15T10:00:05;0.20;99.90
27922;DHT22;15261;50.356;10.340;2024-01-15T10:02:33;0.30;99.90
27922;DHT22;15261;50.356;10.340;2024-01-15T10:04:59;0.30;99.90
27922;DHT22;15261;50.356;10.340;2024-01-15T10:07:25;0.40;99.90
27922;DHT22;15261;50.356;10.340;2024-01-15T10:09:51;0.40;99.90
27922;DHT22;15261;50.356;10.340;2024-01-15T10:12:17;0.40;99.90
27922;DHT22;15261;50.356;10.340;2024-01-15T10:14:43;0.40;99.90
27922;DHT22;15261;50.356;10.340;2024-01-15T10:17:15;0.50;99.90
27922;DHT22;15261;50.356;10.340;2024-01-15T10:19:41;0.70;99.90
27922;DHT22;15261;50.356;10.340;2024-01-15T10:22:09;0.80;99.90
27922;DHT22;15261;50.356;10.340;2024-01-15T10:24:38;1.00;99.90
27922;DHT22;15261;50.356;10.340;2024-01-15T10:27:06;0.80;99.90
27922;DHT22;15261;50.356;10.340;2024-01-15T10:29:32;0.70;99.90
27922;DHT22;15261;50.356;10.340;2024-01-15T10:31:59;0.70;99.90
27922;DHT22;15261;50.356;10.340;2024-01-15T10:34:30;0.60;99.90
27922;DHT22;15261;50.356;10.340;2024-01-15T10:37:12;0.60;99.90
27922;DHT22;15261;50.356;10.340;2024-01-15T10:39:38;0.60;99.90
27922;DHT22;15261;50.356;10.340;2024-01-15T10:42:04;0.50;99.90
27922;DHT22;15261;50.356;10.340;2024-01-15T10:44:30;0.50;99.90
27922;DHT22;15261;50.356;10.340;2024-01-15T10:46:57;0.40;99.90
27922;DHT22;15261;50.356;10.340;2024-01-15T10:49:23;0.40;99.90
27922;DHT22;15261;50.356;10.340;2024-01-15T10:51:52;0.30;99.90
27922;DHT22;15261;50.356;10.340;2024-01-15T10:54:19;0.20;99.90
27922;DHT22;15261;50.356;10.340;2024-01-15T10:56:46;0.20;99.90
27922;DHT22;15261;50.356;10.340;2024-01-15T10:59:13;0.20;99.90
27922;DHT22;15261;50.356;10.340;2024-01-15T11:01:39;0.30;99.90
27922;DHT22;15261;50.356;10.340;2024-01-15T11:04:05;0.20;99.90
27922;DHT22;15261;50.356;10.340;2024-01-15T11:06:46;0.30;99.90
27922;DHT22;15261;50.356;10.340;2024-01-15T11:09:13;0.20;99.90
27922;DHT22;15261;50.356;10.340;2024-01-15T11:11:44;0.20;99.90
27922;DHT22;15261;50.356;10.340;2024-01-15T11:14:10;0.20;99.90
27922;DHT22;15261;50.356;10.340;2024-01-15T11:16:58;0.20;99.90
27922;DHT22;15261;50.356;10.340;2024-01-15T11:19:38;0.20;99.90
27922;DHT22;15261;50.356;10.340;2024-01-15T11:25:15;0.30;99.90
27922;DHT22;15261;50.356;10.340;2024-01-15T11:28:03;0.30;99.90
27922;DHT22;15261;50.356;10.340;2024-01-15T11:30:32;0.40;99.90
27922;DHT22;15261;50.356;10.340;2024-01-15T11:36:15;0.40;99.90
27922;DHT22;15261;50.356;10.340;2024-01-15T11:38:40;0.40;99.90
27922;DHT22;15261;50.356;10.340;2024-01-15T11:41:15;0.40;99.90
27922;DHT22;15261;50.356;10.340;2024-01-15T11:43:41;0.30;99.90
27922;DHT22;15261;50.356;10.340;2024-01-15T11:46:44;0.40;99.90
27922;DHT22;15261;50.356;10.340;2024-01-15T11:53:03;0.40;99.90
27922;DHT22;15261;50.356;10.340;2024-01-15T11:55:39;0.40;99.90
27922;DHT22;15261;50.356;10.340;2024-01-15T11:58:11;0.40;99.90
27922;DHT22;15261;50.356;10.340;2024-01-15T12:00:49;0.40;99.90
27922;DHT22;15261;50.356;10.340;2024-01-15T12:03:26;0.50;99.90
27922;DHT22;15261;50.356;10.340;2024-01-15T12:06:10;0.60;99.90
27922;DHT22;15261;50.356;10.340;2024-01-15T12:09:05;0.70;99.90
27922;DHT22;15261;50.356;10.340;2024-01-15T12:11:34;0.70;99.90
27922;DHT22;15261;50.356;10.340;2024-01-15T12:14:02;0.70;99.90
27922;DHT22;15261;50.356;10.340;2024-01-15T12:16:28;0.70;99.90
27922;DHT22;15261;50.356;10.340;2024-01-15T12:18:54;0.70;99.90
27922;DHT22;15261;50.356;10.340;2024-01-15T12:21:19;0.70;99.90
27922;DHT22;15261;50.356;10.340;2024-01-15T12:23:49;0.80;99.90
27922;DHT22;15261;50.356;10.340;2024-01-15T12:26:46;0.80;99.90
27922;DHT22;15261;50.356;10.340;2024-01-15T12:29:12;0.80;99.90
27922;DHT22;15261;50.356;10.340;2024-01-15T12:31:48;0.90;99.90
27922;DHT22;15261;50.356;10.340;2024-01-15T12:34:14;0.90;99.90
27922;DHT22;15261;50.356;10.340;2024-01-15T12:37:03;1.10;99.90
27922;DHT22;15261;50.356;10.340;2024-01-15T12:39:29;1.30;99.90
27922;DHT22;15261;50.356;10.340;2024-01-15T12:41:55;1.50;99.90
27922;DHT22;15261;50.356;10.340;2024-01-15T12:47:14;1.70;99.90
27922;DHT22;15261;50.356;10.340;2024-01-15T12:49:42;1.80;99.90
27922;DHT22;15261;50.356;10.340;2024-01-15T12:52:10;1.80;99.90
27922;DHT22;15261;50.356;10.340;2024-01-15T12:54:36;1.80;99.90
27922;DHT22;15261;50.356;10.340;2024-01-15T12:57:02;1.80;99.90
27922;DHT22;15261;50.356;10.340;2024-01-15T12:59:27;1.80;99.90
27922;DHT22;15261;50.356;10.340;2024-01-15T13:01:53;1.70;99.90
27922;DHT22;15261;50.356;10.340;2024-01-15T13:04:24;1.60;99.90
27922;DHT22;15261;50.356;10.340;2024-01-15T13:06:50;1.60;99.90
27922;DHT22;15261;50.356;10.340;2024-01-15T13:09:17;1.60;99.90
27922;DHT22;15261;50.356;10.340;2024-01-15T13:11:46;1.50;99.90
27922;DHT22;15261;50.356;10.340;2024-01-15T13:14:12;1.40;99.90
27922;DHT22;15261;50.356;10.340;2024-01-15T13:16:41;1.50;99.90
27922;DHT22;15261;50.356;10.340;2024-01-15T13:19:10;1.50;99.90
27922;DHT22;15261;50.356;10.340;2024-01-15T13:21:37;1.60;99.90
27922;DHT22;15261;50.356;10.340;2024-01-15T13:24:03;1.50;99.90
27922;DHT22;15261;50.356;10.340;2024-01-15T13:26:31;1.60;99.90
27922;DHT22;15261;50.356;10.340;2024-01-15T13:28:59;1.60;99.90
27922;DHT22;15261;50.356;10.340;2024-01-15T13:31:24;1.40;99.90
27922;DHT22;15261;50.356;10.340;2024-01-15T13:33:50;1.50;99.90
27922;DHT22;15261;50.356;10.340;2024-01-15T13:36:16;1.50;99.90
27922;DHT22;15261;50.356;10.340;2024-01-15T13:38:42;1.50;99.90
27922;DHT22;15261;50.356;10.340;2024-01-15T13:41:21;1.50;99.90
27922;DHT22;15261;50.356;10.340;2024-01-15T13:44:11;1.50;99.90
27922;DHT22;15261;50.356;10.340;2024-01-15T13:46:36;1.40;99.90
27922;DHT22;15261;50.356;10.340;2024-01-15T13:49:03;1.40;99.90
27922;DHT22;15261;50.356;10.340;2024-01-15T13:51:31;1.30;99.90
27922;DHT22;15261;50.356;10.340;2024-01-15T13:53:57;1.20;99.90
27922;DHT22;15261;50.356;10.340;2024-01-15T13:56:25;1.20;99.90
27922;DHT22;15261;50.356;10.340;2024-01-15T13:59:02;1.10;99.90
27922;DHT22;15261;50.356;10.340;2024-01-15T14:01:52;1.10;99.90
27922;DHT22;15261;50.356;10.340;2024-01-15T14:04:18;1.00;99.90
27922;DHT22;15261;50.356;10.340;2024-01-15T14:06:53;1.00;99.90
27922;DHT22;15261;50.356;10.340;2024-01-15T14:09:19;0.90;99.90
27922;DHT22;15261;50.356;10.340;2024-01-15T14:11:47;0.90;99.90
27922;DHT22;15261;50.356;10.340;2024-01-15T14:14:13;0.90;99.90
27922;DHT22;15261;50.356;10.340;2024-01-15T14:16:39;0.80;99.90
27922;DHT22;15261;50.356;10.340;2024-01-15T14:19:04;0.90;99.90
27922;DHT22;15261;50.356;10.340;2024-01-15T14:21:31;0.90;99.90
27922;DHT22;15261;50.356;10.340;2024-01-15T14:23:57;0.80;99.90
27922;DHT22;15261;50.356;10.340;2024-01-15T14:26:23;0.80;99.90
27922;DHT22;15261;50.356;10.340;2024-01-15T14:28:48;0.80;99.90
27922;DHT22;15261;50.356;10.340;2024-01-15T14:31:14;0.80;99.90
27922;DHT22;15261;50.356;10.340;2024-01-15T14:33:40;0.70;99.90
27922;DHT22;15261;50.356;10.340;2024-01-15T14:36:06;0.70;99.90
27922;DHT22;15261;50.356;10.340;2024-01-15T14:38:31;0.70;99.90
27922;DHT22;15261;50.356;10.340;2024-01-15T14:40:57;0.70;99.90
27922;DHT22;15261;50.356;10.340;2024-01-15T14:43:22;0.60;99.90
27922;DHT22;15261;50.356;10.340;2024-01-15T14:45:48;0.60;99.90
27922;DHT22;15261;50.356;10.340;2024-01-15T14:48:14;0.60;99.90
27922;DHT22;15261;50.356;10.340;2024-01-15T14:50:39;0.60;99.90
27922;DHT22;15261;50.356;10.340;2024-01-15T14:53:05;0.60;99.90
27922;DHT22;15261;50.356;10.340;2024-01-15T14:55:32;0.50;99.90
27922;DHT22;15261;50.356;10.340;2024-01-15T14:58:01;0.50;99.90
27922;DHT22;15261;50.356;10.340;2024-01-15T15:00:26;0.50;99.90
27922;DHT22;15261;50.356;10.340;2024-01-15T15:02:52;0.60;99.90
27922;DHT22;15261;50.356;10.340;2024-01-15T15:08:34;0.40;99.90
27922;DHT22;15261;50.356;10.340;2024-01-15T15:11:00;0.40;99.90
27922;DHT22;15261;50.356;10.340;2024-01-15T15:13:26;0.40;99.90
27922;DHT22;15261;50.356;10.340;2024-01-15T15:15:53;0.60;99.90
27922;DHT22;15261;50.356;10.340;2024-01-15T15:18:21;1.20;99.90
27922;DHT22;15261;50.356;10.340;2024-01-15T15:20:48;1.40;99.90
27922;DHT22;15261;50.356;10.340;2024-01-15T15:23:15;1.80;99.90
27922;DHT22;15261;50.356;10.340;2024-01-15T15:25:41;2.10;99.90
27922;DHT22;15261;50.356;10.340;2024-01-15T15:28:10;1.80;99.90
27922;DHT22;15261;50.356;10.340;2024-01-15T15:30:37;1.40;99.90
27922;DHT22;15261;50.356;10.340;2024-01-15T15:33:03;1.20;99.90
27922;DHT22;15261;50.356;10.340;2024-01-15T15:35:30;1.10;99.90
27922;DHT22;15261;50.356;10.340;2024-01-15T15:37:56;1.00;99.90
27922;DHT22;15261;50.356;10.340;2024-01-15T15:40:22;1.00;99.90
27922;DHT22;15261;50.356;10.340;2024-01-15T15:42:50;0.90;99.90
27922;DHT22;15261;50.356;10.340;2024-01-15T15:45:15;0.80;99.90
27922;DHT22;15261;50.356;10.340;2024-01-15T15:47:57;0.80;99.90
27922;DHT22;15261;50.356;10.340;2024-01-15T15:50:23;0.80;99.90
27922;DHT22;15261;50.356;10.340;2024-01-15T15:52:48;0.70;99.90
27922;DHT22;15261;50.356;10.340;2024-01-15T15:55:14;0.70;99.90
27922;DHT22;15261;50.356;10.340;2024-01-15T15:57:39;0.70;99.90
27922;DHT22;15261;50.356;10.340;2024-01-15T16:00:05;0.60;99.90